This is the latest recevied weather packets stored in our database for station/object N0ZMJ-4. If no packets are shown the sender has not sent any weather packets the latest 10 day(s).
| Time | Temp. | Humidity | Pressure | Rain* | Wind** | Luminosity | Snow |
|---|---|---|---|---|---|---|---|
| 1776982503 | 18.89° C | 47% | 998.6 hPa | 0 mm | - | - | - |
| 1776982203 | 19.44° C | 47% | 998.6 hPa | 0 mm | - | - | - |
| 1776981903 | 20° C | 47% | 998.4 hPa | 0 mm | - | - | - |
| 1776981603 | 20° C | 47% | 998.2 hPa | 0 mm | - | - | - |
| 1776981303 | 20.56° C | 46% | 997.9 hPa | 0 mm | - | - | - |
| 1776981003 | 21.67° C | 45% | 997.5 hPa | 0 mm | - | - | - |
| 1776980704 | 21.67° C | 45% | 997.4 hPa | 0 mm | - | - | - |
| 1776980403 | 21.11° C | 45% | 997.3 hPa | 0 mm | - | - | - |
| 1776980103 | 22.22° C | 43% | 997.1 hPa | 0 mm | - | - | - |
| 1776979803 | 22.78° C | 41% | 996.8 hPa | 0 mm | - | - | - |
| 1776979503 | 23.33° C | 39% | 996.6 hPa | 0 mm | - | - | - |
| 1776979203 | 23.33° C | 38% | 996.6 hPa | 0 mm | - | - | - |
| 1776978903 | 23.33° C | 35% | 996.6 hPa | 0 mm | - | - | - |
| 1776978604 | 24.44° C | 34% | 996.5 hPa | 0 mm | - | - | - |
| 1776978303 | 24.44° C | 33% | 996.2 hPa | 0 mm | - | - | - |
| 1776978003 | 25.56° C | 33% | 996.1 hPa | 0 mm | - | - | - |
| 1776977703 | 26.11° C | 33% | 996 hPa | 0 mm | - | - | - |
| 1776977403 | 26.11° C | 32% | 996 hPa | 0 mm | - | - | - |
| 1776977103 | 26.67° C | 30% | 995.9 hPa | 0 mm | - | - | - |
| 1776976803 | 26.11° C | 29% | 995.9 hPa | 0 mm | - | - | - |
| 1776976503 | 26.67° C | 29% | 995.8 hPa | 0 mm | - | - | - |
| 1776976203 | 26.67° C | 29% | 995.8 hPa | 0 mm | - | - | - |
| 1776975903 | 26.11° C | 31% | 995.9 hPa | 0 mm | - | - | - |
| 1776975603 | 26.67° C | 32% | 995.9 hPa | 0 mm | - | - | - |
| 1776975303 | 26.11° C | 32% | 995.9 hPa | 0 mm | - | - | - |
* Rain latest hour (hover to see other rain measurements)
** Current wind speed in m/s (hover to see current wind gust speed)